sensor_id;sensor_type;location;lat;lon;timestamp;pressure;altitude;pressure_sealevel;temperature;humidity
12879;BME280;20617;49.476;10.986;2023-03-26T00:00:13;97644.97;;;8.92;100.00
12879;BME280;20617;49.476;10.986;2023-03-26T00:02:19;97645.91;;;8.91;100.00
12879;BME280;20617;49.476;10.986;2023-03-26T00:04:24;97649.97;;;8.96;100.00
12879;BME280;20617;49.476;10.986;2023-03-26T00:06:30;97641.59;;;8.90;100.00
12879;BME280;20617;49.476;10.986;2023-03-26T00:08:39;97644.06;;;8.93;100.00
12879;BME280;20617;49.476;10.986;2023-03-26T00:10:45;97647.53;;;8.93;100.00
12879;BME280;20617;49.476;10.986;2023-03-26T00:12:50;97649.97;;;8.96;100.00
12879;BME280;20617;49.476;10.986;2023-03-26T00:14:55;97653.28;;;9.00;100.00
12879;BME280;20617;49.476;10.986;2023-03-26T00:17:03;97653.28;;;9.00;100.00
12879;BME280;20617;49.476;10.986;2023-03-26T00:19:09;97655.03;;;8.99;100.00
12879;BME280;20617;49.476;10.986;2023-03-26T00:21:16;97652.34;;;9.01;100.00
12879;BME280;20617;49.476;10.986;2023-03-26T00:23:21;97653.19;;;9.01;100.00
12879;BME280;20617;49.476;10.986;2023-03-26T00:25:26;97651.09;;;9.10;100.00
12879;BME280;20617;49.476;10.986;2023-03-26T00:27:33;97650.97;;;8.94;100.00
12879;BME280;20617;49.476;10.986;2023-03-26T00:29:38;97661.53;;;8.89;100.00
12879;BME280;20617;49.476;10.986;2023-03-26T00:31:43;97656.78;;;8.99;100.00
12879;BME280;20617;49.476;10.986;2023-03-26T00:33:52;97657.25;;;9.07;100.00
12879;BME280;20617;49.476;10.986;2023-03-26T00:35:59;97664.56;;;8.99;100.00
12879;BME280;20617;49.476;10.986;2023-03-26T00:38:05;97653.03;;;9.04;100.00
12879;BME280;20617;49.476;10.986;2023-03-26T00:40:11;97659.38;;;9.18;100.00
12879;BME280;20617;49.476;10.986;2023-03-26T00:42:18;97649.53;;;9.24;100.00
12879;BME280;20617;49.476;10.986;2023-03-26T00:44:23;97645.31;;;9.22;100.00
12879;BME280;20617;49.476;10.986;2023-03-26T00:46:29;97645.19;;;9.25;100.00
12879;BME280;20617;49.476;10.986;2023-03-26T00:48:35;97657.56;;;9.20;100.00
12879;BME280;20617;49.476;10.986;2023-03-26T00:50:49;97652.78;;;9.29;100.00
12879;BME280;20617;49.476;10.986;2023-03-26T00:52:54;97644.63;;;9.37;100.00
12879;BME280;20617;49.476;10.986;2023-03-26T00:54:59;97642.25;;;9.33;100.00
12879;BME280;20617;49.476;10.986;2023-03-26T00:57:04;97640.41;;;9.35;100.00
12879;BME280;20617;49.476;10.986;2023-03-26T00:59:11;97639.91;;;9.45;100.00
12879;BME280;20617;49.476;10.986;2023-03-26T01:01:20;97631.84;;;9.51;100.00
12879;BME280;20617;49.476;10.986;2023-03-26T01:03:30;97635.91;;;9.57;100.00
12879;BME280;20617;49.476;10.986;2023-03-26T01:05:44;97632.38;;;9.58;100.00
12879;BME280;20617;49.476;10.986;2023-03-26T01:07:52;97640.38;;;9.53;100.00
12879;BME280;20617;49.476;10.986;2023-03-26T01:09:58;97641.09;;;9.57;100.00
12879;BME280;20617;49.476;10.986;2023-03-26T01:12:06;97642.53;;;9.63;100.00
12879;BME280;20617;49.476;10.986;2023-03-26T01:14:15;97634.53;;;9.67;100.00
12879;BME280;20617;49.476;10.986;2023-03-26T01:16:25;97632.91;;;9.65;100.00
12879;BME280;20617;49.476;10.986;2023-03-26T01:18:31;97635.59;;;9.63;100.00
12879;BME280;20617;49.476;10.986;2023-03-26T01:20:43;97643.16;;;9.68;100.00
12879;BME280;20617;49.476;10.986;2023-03-26T01:23:01;97639.41;;;9.73;100.00
12879;BME280;20617;49.476;10.986;2023-03-26T01:25:11;97635.84;;;9.76;100.00
12879;BME280;20617;49.476;10.986;2023-03-26T01:27:22;97629.53;;;9.63;100.00
12879;BME280;20617;49.476;10.986;2023-03-26T01:29:38;97634.66;;;9.64;100.00
12879;BME280;20617;49.476;10.986;2023-03-26T01:31:52;97633.44;;;9.71;100.00
12879;BME280;20617;49.476;10.986;2023-03-26T01:34:04;97629.03;;;9.73;100.00
12879;BME280;20617;49.476;10.986;2023-03-26T01:36:17;97621.31;;;9.72;100.00
12879;BME280;20617;49.476;10.986;2023-03-26T01:38:31;97629.00;;;9.56;100.00
12879;BME280;20617;49.476;10.986;2023-03-26T01:40:45;97629.00;;;9.56;100.00
12879;BME280;20617;49.476;10.986;2023-03-26T01:42:56;97633.25;;;9.40;100.00
12879;BME280;20617;49.476;10.986;2023-03-26T01:45:08;97629.69;;;9.23;100.00
12879;BME280;20617;49.476;10.986;2023-03-26T01:47:17;97630.97;;;9.15;100.00
12879;BME280;20617;49.476;10.986;2023-03-26T01:49:25;97631.28;;;9.07;100.00
12879;BME280;20617;49.476;10.986;2023-03-26T01:51:33;97624.78;;;8.98;100.00
12879;BME280;20617;49.476;10.986;2023-03-26T01:53:40;97623.66;;;9.04;100.00
12879;BME280;20617;49.476;10.986;2023-03-26T01:55:56;97630.19;;;8.94;100.00
12879;BME280;20617;49.476;10.986;2023-03-26T01:58:08;97636.28;;;8.74;100.00
12879;BME280;20617;49.476;10.986;2023-03-26T02:00:21;97631.22;;;8.71;100.00
12879;BME280;20617;49.476;10.986;2023-03-26T02:02:32;97629.56;;;8.70;100.00
12879;BME280;20617;49.476;10.986;2023-03-26T02:04:45;97618.44;;;8.66;100.00
12879;BME280;20617;49.476;10.986;2023-03-26T02:06:59;97621.88;;;8.67;100.00
12879;BME280;20617;49.476;10.986;2023-03-26T02:09:09;97615.28;;;8.78;100.00
12879;BME280;20617;49.476;10.986;2023-03-26T02:11:19;97615.44;;;8.75;100.00
12879;BME280;20617;49.476;10.986;2023-03-26T02:13:36;97613.44;;;8.82;100.00
12879;BME280;20617;49.476;10.986;2023-03-26T02:15:53;97603.78;;;8.84;100.00
12879;BME280;20617;49.476;10.986;2023-03-26T02:17:59;97599.53;;;8.83;100.00
12879;BME280;20617;49.476;10.986;2023-03-26T02:20:07;97599.63;;;8.81;100.00
12879;BME280;20617;49.476;10.986;2023-03-26T02:22:12;97586.13;;;8.92;100.00
12879;BME280;20617;49.476;10.986;2023-03-26T02:24:20;97592.78;;;8.98;100.00
12879;BME280;20617;49.476;10.986;2023-03-26T02:26:33;97588.53;;;8.97;100.00
12879;BME280;20617;49.476;10.986;2023-03-26T02:28:45;97582.41;;;8.98;100.00
12879;BME280;20617;49.476;10.986;2023-03-26T02:30:50;97576.03;;;9.05;100.00
12879;BME280;20617;49.476;10.986;2023-03-26T02:32:58;97575.72;;;9.11;100.00
12879;BME280;20617;49.476;10.986;2023-03-26T02:35:14;97566.19;;;9.12;100.00
12879;BME280;20617;49.476;10.986;2023-03-26T02:37:20;97566.97;;;9.14;100.00
12879;BME280;20617;49.476;10.986;2023-03-26T02:39:33;97561.97;;;9.09;100.00
12879;BME280;20617;49.476;10.986;2023-03-26T02:41:48;97566.09;;;9.13;100.00
12879;BME280;20617;49.476;10.986;2023-03-26T02:43:56;97563.38;;;9.16;100.00
12879;BME280;20617;49.476;10.986;2023-03-26T02:46:26;97561.78;;;9.14;100.00
12879;BME280;20617;49.476;10.986;2023-03-26T02:48:45;97559.47;;;9.07;100.00
12879;BME280;20617;49.476;10.986;2023-03-26T02:50:56;97555.25;;;9.05;100.00
12879;BME280;20617;49.476;10.986;2023-03-26T02:53:02;97555.59;;;8.97;100.00
12879;BME280;20617;49.476;10.986;2023-03-26T02:55:12;97558.19;;;8.97;100.00
12879;BME280;20617;49.476;10.986;2023-03-26T02:57:23;97548.16;;;8.90;100.00
12879;BME280;20617;49.476;10.986;2023-03-26T02:59:47;97543.34;;;8.82;100.00
12879;BME280;20617;49.476;10.986;2023-03-26T03:02:13;97552.69;;;8.67;100.00
12879;BME280;20617;49.476;10.986;2023-03-26T03:04:38;97549.22;;;8.67;100.00
12879;BME280;20617;49.476;10.986;2023-03-26T03:06:43;97545.75;;;8.68;100.00
12879;BME280;20617;49.476;10.986;2023-03-26T03:08:54;97542.59;;;8.61;100.00
12879;BME280;20617;49.476;10.986;2023-03-26T03:11:10;97546.34;;;8.54;100.00
12879;BME280;20617;49.476;10.986;2023-03-26T03:13:23;97543.72;;;8.55;100.00
12879;BME280;20617;49.476;10.986;2023-03-26T03:15:28;97535.84;;;8.57;100.00
12879;BME280;20617;49.476;10.986;2023-03-26T03:17:33;97541.94;;;8.56;100.00
12879;BME280;20617;49.476;10.986;2023-03-26T03:19:38;97532.41;;;8.56;100.00
12879;BME280;20617;49.476;10.986;2023-03-26T03:21:43;97533.53;;;8.51;100.00
12879;BME280;20617;49.476;10.986;2023-03-26T03:23:48;97532.75;;;8.49;100.00
12879;BME280;20617;49.476;10.986;2023-03-26T03:25:53;97526.22;;;8.40;100.00
12879;BME280;20617;49.476;10.986;2023-03-26T03:27:59;97524.47;;;8.41;100.00
12879;BME280;20617;49.476;10.986;2023-03-26T03:30:08;97529.47;;;8.45;100.00
12879;BME280;20617;49.476;10.986;2023-03-26T03:32:20;97525.25;;;8.43;100.00
12879;BME280;20617;49.476;10.986;2023-03-26T03:34:29;97524.22;;;8.47;100.00
12879;BME280;20617;49.476;10.986;2023-03-26T03:36:34;97526.53;;;8.53;100.00
12879;BME280;20617;49.476;10.986;2023-03-26T03:38:49;97514.16;;;8.58;100.00
12879;BME280;20617;49.476;10.986;2023-03-26T03:40:56;97511.38;;;8.63;100.00
12879;BME280;20617;49.476;10.986;2023-03-26T03:43:02;97513.03;;;8.64;100.00
12879;BME280;20617;49.476;10.986;2023-03-26T03:45:19;97508.56;;;8.67;100.00
12879;BME280;20617;49.476;10.986;2023-03-26T03:47:43;97510.31;;;8.67;100.00
12879;BME280;20617;49.476;10.986;2023-03-26T03:49:52;97504.13;;;8.69;100.00
12879;BME280;20617;49.476;10.986;2023-03-26T03:51:58;97507.66;;;8.68;100.00
12879;BME280;20617;49.476;10.986;2023-03-26T03:54:10;97508.44;;;8.70;100.00
12879;BME280;20617;49.476;10.986;2023-03-26T03:56:21;97508.44;;;8.70;100.00
12879;BME280;20617;49.476;10.986;2023-03-26T03:58:56;97507.66;;;8.68;100.00
12879;BME280;20617;49.476;10.986;2023-03-26T04:01:11;97511.03;;;8.70;100.00
12879;BME280;20617;49.476;10.986;2023-03-26T04:03:38;97511.22;;;8.66;100.00
12879;BME280;20617;49.476;10.986;2023-03-26T04:05:50;97507.31;;;8.57;100.00
12879;BME280;20617;49.476;10.986;2023-03-26T04:07:59;97516.69;;;8.41;100.00
12879;BME280;20617;49.476;10.986;2023-03-26T04:10:26;97516.69;;;8.41;100.00
12879;BME280;20617;49.476;10.986;2023-03-26T04:12:53;97521.66;;;8.26;100.00
12879;BME280;20617;49.476;10.986;2023-03-26T04:15:19;97505.88;;;8.31;100.00
12879;BME280;20617;49.476;10.986;2023-03-26T04:17:27;97508.41;;;8.32;100.00
12879;BME280;20617;49.476;10.986;2023-03-26T04:19:35;97507.94;;;8.23;100.00
12879;BME280;20617;49.476;10.986;2023-03-26T04:21:43;97508.19;;;8.18;100.00
12879;BME280;20617;49.476;10.986;2023-03-26T04:23:48;97510.50;;;8.24;100.00
12879;BME280;20617;49.476;10.986;2023-03-26T04:26:18;97516.50;;;8.25;100.00
12879;BME280;20617;49.476;10.986;2023-03-26T04:29:00;97507.25;;;8.19;100.00
12879;BME280;20617;49.476;10.986;2023-03-26T04:31:11;97498.69;;;8.17;100.00
12879;BME280;20617;49.476;10.986;2023-03-26T04:33:20;97504.75;;;8.18;100.00
12879;BME280;20617;49.476;10.986;2023-03-26T04:35:27;97491.69;;;8.19;100.00
12879;BME280;20617;49.476;10.986;2023-03-26T04:37:37;97493.66;;;8.14;100.00
12879;BME280;20617;49.476;10.986;2023-03-26T04:39:46;97490.03;;;8.18;100.00
12879;BME280;20617;49.476;10.986;2023-03-26T04:42:07;97488.28;;;8.19;100.00
12879;BME280;20617;49.476;10.986;2023-03-26T04:44:26;97485.97;;;8.12;100.00
12879;BME280;20617;49.476;10.986;2023-03-26T04:46:44;97483.22;;;8.15;100.00
12879;BME280;20617;49.476;10.986;2023-03-26T04:49:02;97483.09;;;8.19;100.00
12879;BME280;20617;49.476;10.986;2023-03-26T04:51:07;97476.00;;;8.22;100.00
12879;BME280;20617;49.476;10.986;2023-03-26T04:53:22;97477.75;;;8.22;100.00
12879;BME280;20617;49.476;10.986;2023-03-26T04:55:42;97476.16;;;8.19;100.00
12879;BME280;20617;49.476;10.986;2023-03-26T04:58:00;97470.69;;;8.25;100.00
12879;BME280;20617;49.476;10.986;2023-03-26T05:00:25;97465.34;;;8.28;100.00
12879;BME280;20617;49.476;10.986;2023-03-26T05:02:32;97464.31;;;8.32;100.00
12879;BME280;20617;49.476;10.986;2023-03-26T05:04:43;97464.91;;;8.39;100.00
12879;BME280;20617;49.476;10.986;2023-03-26T05:06:52;97458.59;;;8.45;100.00
12879;BME280;20617;49.476;10.986;2023-03-26T05:09:08;97457.66;;;8.46;100.00
12879;BME280;20617;49.476;10.986;2023-03-26T05:11:40;97456.78;;;8.47;100.00
12879;BME280;20617;49.476;10.986;2023-03-26T05:13:45;97442.75;;;8.51;100.00
12879;BME280;20617;49.476;10.986;2023-03-26T05:15:51;97447.00;;;8.52;100.00
12879;BME280;20617;49.476;10.986;2023-03-26T05:18:07;97441.69;;;8.55;100.00
12879;BME280;20617;49.476;10.986;2023-03-26T05:20:23;97435.50;;;8.57;100.00
12879;BME280;20617;49.476;10.986;2023-03-26T05:22:28;97438.25;;;8.54;100.00
12879;BME280;20617;49.476;10.986;2023-03-26T05:24:49;97431.25;;;8.56;100.00
12879;BME280;20617;49.476;10.986;2023-03-26T05:26:54;97436.13;;;8.63;100.00
12879;BME280;20617;49.476;10.986;2023-03-26T05:28:59;97424.78;;;8.65;100.00
12879;BME280;20617;49.476;10.986;2023-03-26T05:31:09;97418.50;;;8.69;100.00
12879;BME280;20617;49.476;10.986;2023-03-26T05:33:20;97420.97;;;8.72;100.00
12879;BME280;20617;49.476;10.986;2023-03-26T05:35:38;97412.13;;;8.76;100.00
12879;BME280;20617;49.476;10.986;2023-03-26T05:37:45;97406.03;;;8.77;100.00
12879;BME280;20617;49.476;10.986;2023-03-26T05:39:57;97411.06;;;8.80;100.00
12879;BME280;20617;49.476;10.986;2023-03-26T05:42:21;97400.84;;;8.77;100.00
12879;BME280;20617;49.476;10.986;2023-03-26T05:44:40;97398.09;;;8.80;100.00
12879;BME280;20617;49.476;10.986;2023-03-26T05:46:55;97393.03;;;8.77;100.00
12879;BME280;20617;49.476;10.986;2023-03-26T05:49:02;97388.38;;;8.84;100.00
12879;BME280;20617;49.476;10.986;2023-03-26T05:51:12;97389.00;;;8.89;100.00
12879;BME280;20617;49.476;10.986;2023-03-26T05:53:26;97381.16;;;8.91;100.00
12879;BME280;20617;49.476;10.986;2023-03-26T05:55:50;97370.69;;;8.92;100.00
12879;BME280;20617;49.476;10.986;2023-03-26T05:58:29;97363.72;;;8.93;100.00
12879;BME280;20617;49.476;10.986;2023-03-26T06:00:57;97354.22;;;8.93;100.00
12879;BME280;20617;49.476;10.986;2023-03-26T06:03:14;97349.75;;;8.95;100.00
12879;BME280;20617;49.476;10.986;2023-03-26T06:05:52;97349.63;;;8.98;100.00
12879;BME280;20617;49.476;10.986;2023-03-26T06:08:14;97346.13;;;8.99;100.00
12879;BME280;20617;49.476;10.986;2023-03-26T06:10:25;97338.09;;;9.04;100.00
12879;BME280;20617;49.476;10.986;2023-03-26T06:12:30;97340.38;;;9.10;100.00
12879;BME280;20617;49.476;10.986;2023-03-26T06:14:35;97332.28;;;9.16;100.00
12879;BME280;20617;49.476;10.986;2023-03-26T06:16:50;97328.59;;;9.20;100.00
12879;BME280;20617;49.476;10.986;2023-03-26T06:18:56;97325.69;;;9.26;100.00
12879;BME280;20617;49.476;10.986;2023-03-26T06:21:12;97322.16;;;9.27;100.00
12879;BME280;20617;49.476;10.986;2023-03-26T06:23:24;97323.69;;;9.32;100.00
12879;BME280;20617;49.476;10.986;2023-03-26T06:25:35;97319.50;;;9.29;100.00
12879;BME280;20617;49.476;10.986;2023-03-26T06:27:48;97312.53;;;9.29;100.00
12879;BME280;20617;49.476;10.986;2023-03-26T06:30:10;97314.22;;;9.30;100.00
12879;BME280;20617;49.476;10.986;2023-03-26T06:32:26;97313.38;;;9.30;100.00
12879;BME280;20617;49.476;10.986;2023-03-26T06:34:39;97321.84;;;9.34;100.00
12879;BME280;20617;49.476;10.986;2023-03-26T06:36:44;97318.19;;;9.38;100.00
12879;BME280;20617;49.476;10.986;2023-03-26T06:38:52;97320.47;;;9.44;100.00
12879;BME280;20617;49.476;10.986;2023-03-26T06:41:01;97315.88;;;9.49;100.00
12879;BME280;20617;49.476;10.986;2023-03-26T06:43:27;97308.69;;;9.54;100.00
12879;BME280;20617;49.476;10.986;2023-03-26T06:45:50;97311.84;;;9.59;100.00
12879;BME280;20617;49.476;10.986;2023-03-26T06:48:33;97313.53;;;9.60;100.00
12879;BME280;20617;49.476;10.986;2023-03-26T06:50:54;97303.38;;;9.56;100.00
12879;BME280;20617;49.476;10.986;2023-03-26T06:53:17;97292.81;;;9.59;100.00
12879;BME280;20617;49.476;10.986;2023-03-26T06:55:40;97301.28;;;9.62;100.00
12879;BME280;20617;49.476;10.986;2023-03-26T06:58:04;97302.81;;;9.66;100.00
12879;BME280;20617;49.476;10.986;2023-03-26T07:00:16;97300.06;;;9.69;100.00
12879;BME280;20617;49.476;10.986;2023-03-26T07:02:40;97297.94;;;9.76;100.00
12879;BME280;20617;49.476;10.986;2023-03-26T07:05:04;97293.69;;;9.75;100.00
12879;BME280;20617;49.476;10.986;2023-03-26T07:07:28;97296.28;;;9.75;100.00
12879;BME280;20617;49.476;10.986;2023-03-26T07:09:52;97302.03;;;9.80;100.00
12879;BME280;20617;49.476;10.986;2023-03-26T07:12:19;97308.59;;;9.87;100.00
12879;BME280;20617;49.476;10.986;2023-03-26T07:14:43;97304.00;;;9.92;100.00
12879;BME280;20617;49.476;10.986;2023-03-26T07:17:16;97297.53;;;10.00;100.00
12879;BME280;20617;49.476;10.986;2023-03-26T07:19:33;97300.97;;;10.00;100.00
12879;BME280;20617;49.476;10.986;2023-03-26T07:21:39;97296.09;;;9.94;100.00
12879;BME280;20617;49.476;10.986;2023-03-26T07:24:05;97289.31;;;9.91;100.00
12879;BME280;20617;49.476;10.986;2023-03-26T07:26:25;97286.63;;;9.93;100.00
12879;BME280;20617;49.476;10.986;2023-03-26T07:28:55;97283.22;;;9.92;100.00
12879;BME280;20617;49.476;10.986;2023-03-26T07:31:28;97282.19;;;9.95;100.00
12879;BME280;20617;49.476;10.986;2023-03-26T07:33:53;97272.81;;;9.92;100.00
12879;BME280;20617;49.476;10.986;2023-03-26T07:36:19;97268.09;;;9.99;100.00
12879;BME280;20617;49.476;10.986;2023-03-26T07:38:52;97261.63;;;10.06;100.00
12879;BME280;20617;49.476;10.986;2023-03-26T07:41:24;97262.38;;;10.08;100.00
12879;BME280;20617;49.476;10.986;2023-03-26T07:44:22;97254.16;;;10.16;100.00
12879;BME280;20617;49.476;10.986;2023-03-26T07:46:57;97244.50;;;10.18;100.00
12879;BME280;20617;49.476;10.986;2023-03-26T07:49:16;97233.94;;;10.21;100.00
12879;BME280;20617;49.476;10.986;2023-03-26T07:51:53;97234.00;;;10.19;100.00
12879;BME280;20617;49.476;10.986;2023-03-26T07:54:19;97230.16;;;10.27;100.00
12879;BME280;20617;49.476;10.986;2023-03-26T07:56:56;97228.47;;;10.26;100.00
12879;BME280;20617;49.476;10.986;2023-03-26T07:59:37;97227.56;;;10.27;100.00
12879;BME280;20617;49.476;10.986;2023-03-26T08:02:47;97217.84;;;10.30;100.00
12879;BME280;20617;49.476;10.986;2023-03-26T08:06:27;97211.94;;;10.27;100.00
12879;BME280;20617;49.476;10.986;2023-03-26T08:08:47;97206.81;;;10.25;100.00
12879;BME280;20617;49.476;10.986;2023-03-26T08:11:28;97198.88;;;10.28;100.00
12879;BME280;20617;49.476;10.986;2023-03-26T08:13:54;97206.59;;;10.30;100.00
12879;BME280;20617;49.476;10.986;2023-03-26T08:16:20;97203.88;;;10.31;100.00
12879;BME280;20617;49.476;10.986;2023-03-26T08:18:45;97209.84;;;10.33;100.00
12879;BME280;20617;49.476;10.986;2023-03-26T08:21:07;97211.44;;;10.36;100.00
12879;BME280;20617;49.476;10.986;2023-03-26T08:23:31;97211.91;;;10.42;100.00
12879;BME280;20617;49.476;10.986;2023-03-26T08:25:59;97205.88;;;10.42;100.00
12879;BME280;20617;49.476;10.986;2023-03-26T08:28:33;97201.56;;;10.41;100.00
12879;BME280;20617;49.476;10.986;2023-03-26T08:30:59;97209.38;;;10.41;100.00
12879;BME280;20617;49.476;10.986;2023-03-26T08:33:15;97204.19;;;10.41;100.00
12879;BME280;20617;49.476;10.986;2023-03-26T08:35:27;97198.16;;;10.40;100.00
12879;BME280;20617;49.476;10.986;2023-03-26T08:37:32;97192.13;;;10.40;100.00
12879;BME280;20617;49.476;10.986;2023-03-26T08:39:43;97189.75;;;10.35;100.00
12879;BME280;20617;49.476;10.986;2023-03-26T08:42:09;97185.25;;;10.23;100.00
12879;BME280;20617;49.476;10.986;2023-03-26T08:45:02;97173.06;;;10.24;100.00
12879;BME280;20617;49.476;10.986;2023-03-26T08:52:36;97186.69;;;10.29;100.00
12879;BME280;20617;49.476;10.986;2023-03-26T08:57:52;97175.53;;;10.27;100.00
12879;BME280;20617;49.476;10.986;2023-03-26T09:00:24;97170.47;;;10.24;100.00
12879;BME280;20617;49.476;10.986;2023-03-26T09:05:47;97174.63;;;10.28;100.00
12879;BME280;20617;49.476;10.986;2023-03-26T09:08:30;97158.94;;;10.13;100.00
12879;BME280;20617;49.476;10.986;2023-03-26T09:11:11;97165.41;;;10.06;100.00
12879;BME280;20617;49.476;10.986;2023-03-26T09:13:38;97172.31;;;10.07;100.00
12879;BME280;20617;49.476;10.986;2023-03-26T09:18:49;97175.44;;;9.98;100.00
12879;BME280;20617;49.476;10.986;2023-03-26T09:21:28;97167.53;;;10.00;100.00
12879;BME280;20617;49.476;10.986;2023-03-26T09:26:24;97164.50;;;10.07;100.00
12879;BME280;20617;49.476;10.986;2023-03-26T09:29:11;97166.09;;;10.10;100.00
12879;BME280;20617;49.476;10.986;2023-03-26T09:31:49;97164.03;;;10.15;100.00
12879;BME280;20617;49.476;10.986;2023-03-26T09:34:12;97160.03;;;10.09;100.00
12879;BME280;20617;49.476;10.986;2023-03-26T09:36:43;97166.94;;;10.10;100.00
12879;BME280;20617;49.476;10.986;2023-03-26T09:38:52;97170.63;;;10.06;100.00
12879;BME280;20617;49.476;10.986;2023-03-26T09:41:01;97168.69;;;10.10;100.00
12879;BME280;20617;49.476;10.986;2023-03-26T09:43:30;97174.44;;;10.01;100.00
12879;BME280;20617;49.476;10.986;2023-03-26T09:45:59;97180.63;;;9.98;100.00
12879;BME280;20617;49.476;10.986;2023-03-26T09:53:40;97184.31;;;9.94;100.00
12879;BME280;20617;49.476;10.986;2023-03-26T09:56:01;97185.91;;;9.96;100.00
12879;BME280;20617;49.476;10.986;2023-03-26T09:58:27;97182.38;;;9.97;100.00
12879;BME280;20617;49.476;10.986;2023-03-26T10:00:40;97186.00;;;9.95;100.00
12879;BME280;20617;49.476;10.986;2023-03-26T10:03:11;97188.78;;;9.92;100.00
12879;BME280;20617;49.476;10.986;2023-03-26T10:08:08;97174.84;;;9.93;100.00
12879;BME280;20617;49.476;10.986;2023-03-26T10:10:25;97176.03;;;9.87;100.00
12879;BME280;20617;49.476;10.986;2023-03-26T10:12:36;97174.84;;;9.93;100.00
12879;BME280;20617;49.476;10.986;2023-03-26T10:14:49;97164.19;;;9.97;100.00
12879;BME280;20617;49.476;10.986;2023-03-26T10:17:05;97160.66;;;9.98;100.00
12879;BME280;20617;49.476;10.986;2023-03-26T10:21:53;97156.78;;;10.06;100.00
12879;BME280;20617;49.476;10.986;2023-03-26T10:24:21;97155.38;;;10.00;100.00
12879;BME280;20617;49.476;10.986;2023-03-26T10:26:49;97159.56;;;10.03;100.00
12879;BME280;20617;49.476;10.986;2023-03-26T10:29:25;97168.38;;;10.00;100.00
12879;BME280;20617;49.476;10.986;2023-03-26T10:31:45;97157.78;;;10.03;100.00
12879;BME280;20617;49.476;10.986;2023-03-26T10:33:58;97152.41;;;10.06;100.00
12879;BME280;20617;49.476;10.986;2023-03-26T10:36:17;97144.44;;;10.09;100.00
12879;BME280;20617;49.476;10.986;2023-03-26T10:38:41;97130.13;;;10.02;100.00
12879;BME280;20617;49.476;10.986;2023-03-26T10:41:00;97141.47;;;10.01;100.00
12879;BME280;20617;49.476;10.986;2023-03-26T10:43:35;97138.09;;;9.99;100.00
12879;BME280;20617;49.476;10.986;2023-03-26T10:48:29;97131.78;;;10.03;100.00
12879;BME280;20617;49.476;10.986;2023-03-26T10:50:51;97126.88;;;9.98;100.00
12879;BME280;20617;49.476;10.986;2023-03-26T10:53:01;97109.28;;;9.88;100.00
12879;BME280;20617;49.476;10.986;2023-03-26T10:55:13;97108.94;;;9.94;100.00
12879;BME280;20617;49.476;10.986;2023-03-26T10:57:28;97104.19;;;9.86;100.00
12879;BME280;20617;49.476;10.986;2023-03-26T10:59:40;97117.75;;;9.91;100.00
12879;BME280;20617;49.476;10.986;2023-03-26T11:01:49;97107.75;;;10.00;100.00
12879;BME280;20617;49.476;10.986;2023-03-26T11:04:03;97112.09;;;9.99;100.00
12879;BME280;20617;49.476;10.986;2023-03-26T11:06:24;97101.53;;;10.02;100.00
12879;BME280;20617;49.476;10.986;2023-03-26T11:08:34;97105.72;;;10.05;100.00
12879;BME280;20617;49.476;10.986;2023-03-26T11:10:47;97106.16;;;9.97;100.00
12879;BME280;20617;49.476;10.986;2023-03-26T11:13:02;97097.09;;;10.04;100.00
12879;BME280;20617;49.476;10.986;2023-03-26T11:15:20;97086.94;;;10.00;100.00
12879;BME280;20617;49.476;10.986;2023-03-26T11:17:37;97078.97;;;10.03;100.00
12879;BME280;20617;49.476;10.986;2023-03-26T11:19:50;97076.72;;;9.96;100.00
12879;BME280;20617;49.476;10.986;2023-03-26T11:22:00;97084.72;;;10.08;100.00
12879;BME280;20617;49.476;10.986;2023-03-26T11:24:27;97071.91;;;10.05;100.00
12879;BME280;20617;49.476;10.986;2023-03-26T11:26:42;97056.78;;;10.11;100.00
12879;BME280;20617;49.476;10.986;2023-03-26T11:29:11;97052.03;;;10.18;100.00
12879;BME280;20617;49.476;10.986;2023-03-26T11:31:45;97042.69;;;10.15;100.00
12879;BME280;20617;49.476;10.986;2023-03-26T11:33:55;97029.56;;;10.03;100.00
12879;BME280;20617;49.476;10.986;2023-03-26T11:36:04;97032.47;;;10.12;100.00
12879;BME280;20617;49.476;10.986;2023-03-26T11:38:15;97034.22;;;10.26;100.00
12879;BME280;20617;49.476;10.986;2023-03-26T11:40:28;97034.81;;;10.31;100.00
12879;BME280;20617;49.476;10.986;2023-03-26T11:42:36;97035.94;;;10.27;100.00
12879;BME280;20617;49.476;10.986;2023-03-26T11:44:44;97034.75;;;10.33;100.00
12879;BME280;20617;49.476;10.986;2023-03-26T11:46:56;97037.69;;;10.41;100.00
12879;BME280;20617;49.476;10.986;2023-03-26T11:49:08;97039.63;;;10.52;100.00
12879;BME280;20617;49.476;10.986;2023-03-26T11:51:19;97037.69;;;10.55;100.00
12879;BME280;20617;49.476;10.986;2023-03-26T11:53:28;97029.69;;;10.58;100.00
12879;BME280;20617;49.476;10.986;2023-03-26T11:55:36;97032.47;;;10.55;100.00
12879;BME280;20617;49.476;10.986;2023-03-26T11:57:48;97031.38;;;10.45;100.00
12879;BME280;20617;49.476;10.986;2023-03-26T11:59:57;97030.56;;;10.45;100.00
12879;BME280;20617;49.476;10.986;2023-03-26T12:02:23;97026.81;;;10.49;100.00
12879;BME280;20617;49.476;10.986;2023-03-26T12:04:35;97028.22;;;10.54;100.00
12879;BME280;20617;49.476;10.986;2023-03-26T12:06:50;97028.84;;;10.58;100.00
12879;BME280;20617;49.476;10.986;2023-03-26T12:08:57;97019.63;;;10.67;100.00
12879;BME280;20617;49.476;10.986;2023-03-26T12:11:05;97018.41;;;10.72;100.00
12879;BME280;20617;49.476;10.986;2023-03-26T12:13:27;97022.59;;;10.75;100.00
12879;BME280;20617;49.476;10.986;2023-03-26T12:15:33;97028.63;;;10.75;100.00
12879;BME280;20617;49.476;10.986;2023-03-26T12:17:50;97012.16;;;10.89;100.00
12879;BME280;20617;49.476;10.986;2023-03-26T12:19:57;97001.09;;;11.13;100.00